KMSV/MSV METAR and TAF weather

Enter ICAO airport designator
Station Type Date Time Source
KMSV METAR 2021/05/15 01:56 UTC NOAA

KMSV 150156Z AUTO 32004KT 10SM OVC090 16/02 A3022 RMK AO2 SLP230 T01560022


Station Type Date Time Source
KMSV Decoded METAR 2021/05/15 01:56 UTC NOAA

Monticello, Sullivan County International Airport, NY, United States (KMSV) 41-42N 074-48W
May 14, 2021 - 09:56 PM EDT / 2021.05.15 0156 UTC
Wind: from the NW (320 degrees) at 5 MPH (4 KT):0
Visibility: 10 mile(s):0
Sky conditions: overcast
Temperature: 60.1 F (15.6 C)
Dew Point: 36.0 F (2.2 C)
Relative Humidity: 40%
Pressure (altimeter): 30.22 in. Hg (1023 hPa)
ob: KMSV 150156Z AUTO 32004KT 10SM OVC090 16/02 A3022 RMK AO2 SLP230 T01560022
cycle: 2

Station Type Date Time Source
KMSV TAF UTC NOAA

Error!

Example: see airport list